Time;durP1;ratioP1;P1;durP2;ratioP2;P2;SDS_P1;SDS_P2;PMS_P1;PMS_P2;Temp;Humidity;BMP_temperature;BMP_pressure;BME280_temperature;BME280_humidity;BME280_pressure;Samples;Min_cycle;Max_cycle;Signal;HPM_P1;HPM_P2
2022/07/28 00:02:24;;;;;;;10.30;1.67;;;17.90;99.90;;;;;;4989605;28;20187;-75
2022/07/28 00:04:49;;;;;;;2.23;1.73;;;17.90;99.90;;;;;;4990835;28;20679;-76
2022/07/28 00:07:15;;;;;;;4.20;2.03;;;17.80;99.90;;;;;;4990239;28;20249;-75
2022/07/28 00:09:40;;;;;;;6.20;1.70;;;17.80;99.90;;;;;;4993249;28;20175;-74
2022/07/28 00:12:06;;;;;;;3.30;2.00;;;17.80;99.90;;;;;;4993697;28;20198;-75
2022/07/28 00:14:32;;;;;;;7.10;2.30;;;17.80;99.90;;;;;;4993796;28;20243;-76
2022/07/28 00:16:58;;;;;;;3.80;1.90;;;17.80;99.90;;;;;;4994304;28;20266;-77
2022/07/28 00:19:24;;;;;;;2.23;1.50;;;17.80;99.90;;;;;;4994208;28;20255;-75
2022/07/28 00:21:50;;;;;;;2.10;1.80;;;17.70;99.90;;;;;;4976106;28;20862;-77
2022/07/28 00:24:15;;;;;;;4.50;1.90;;;17.60;99.90;;;;;;4994226;28;20418;-76
2022/07/28 00:26:41;;;;;;;3.00;1.73;;;17.60;99.90;;;;;;4976137;28;20171;-75
2022/07/28 00:29:07;;;;;;;8.53;1.70;;;17.60;99.90;;;;;;4994153;28;20179;-76
2022/07/28 00:31:32;;;;;;;5.20;1.80;;;17.50;99.90;;;;;;4993155;28;20314;-77
2022/07/28 00:33:58;;;;;;;2.60;1.90;;;17.50;99.90;;;;;;4993643;28;21076;-75
2022/07/28 00:36:23;;;;;;;1.70;1.40;;;17.40;99.90;;;;;;4994267;28;20176;-76
2022/07/28 00:38:49;;;;;;;4.60;1.70;;;17.40;99.90;;;;;;4994090;28;20172;-75
2022/07/28 00:41:16;;;;;;;2.00;1.80;;;17.30;99.90;;;;;;4993330;28;20203;-73
2022/07/28 00:43:44;;;;;;;3.40;2.07;;;17.30;99.90;;;;;;4993680;28;20659;-75
2022/07/28 00:46:10;;;;;;;3.00;1.70;;;17.20;99.90;;;;;;4993525;28;20497;-75
2022/07/28 00:48:42;;;;;;;6.00;1.63;;;17.20;99.90;;;;;;4993974;28;20480;-75
2022/07/28 00:51:08;;;;;;;7.77;1.90;;;17.10;99.90;;;;;;4976008;28;21104;-75
2022/07/28 00:53:34;;;;;;;3.93;2.30;;;17.10;99.90;;;;;;4993601;28;20887;-77
2022/07/28 00:56:00;;;;;;;2.10;1.83;;;17.00;99.90;;;;;;4993121;28;20417;-75
2022/07/28 00:58:26;;;;;;;4.67;2.47;;;17.00;99.90;;;;;;4993616;28;20429;-74
2022/07/28 02:31:42;;;;;;;3.13;2.30;;;15.70;99.90;;;;;;5712187;23;20471;-73
2022/07/28 02:34:11;;;;;;;5.23;2.60;;;15.70;99.90;;;;;;4929229;29;20444;-75
2022/07/28 02:36:39;;;;;;;5.40;2.33;;;15.70;99.90;;;;;;4926636;29;20428;-75
2022/07/28 02:39:10;;;;;;;3.57;2.20;;;15.70;99.90;;;;;;4934266;29;20776;-75
2022/07/28 02:41:40;;;;;;;3.83;2.17;;;15.60;99.90;;;;;;4934482;29;20472;-76
2022/07/28 02:44:14;;;;;;;5.53;2.50;;;15.60;99.90;;;;;;4934006;29;20512;-75
2022/07/28 02:46:50;;;;;;;2.40;2.30;;;15.60;99.90;;;;;;4934204;29;20404;-72
2022/07/28 02:49:22;;;;;;;3.20;2.00;;;15.60;99.90;;;;;;4934282;29;20475;-75
2022/07/28 02:51:51;;;;;;;1.97;1.40;;;15.50;99.90;;;;;;4933842;29;20576;-75
2022/07/28 02:54:18;;;;;;;4.57;2.00;;;15.50;99.90;;;;;;4934588;29;20421;-75
2022/07/28 02:56:47;;;;;;;7.90;1.80;;;15.50;99.90;;;;;;4934425;29;20458;-75
2022/07/28 02:59:13;;;;;;;1.93;1.83;;;15.50;99.90;;;;;;4934609;29;20621;-75
2022/07/28 03:01:41;;;;;;;1.83;1.73;;;15.40;99.90;;;;;;4933985;29;20481;-74
2022/07/28 03:04:09;;;;;;;2.20;2.00;;;15.40;99.90;;;;;;4935008;29;20453;-75
2022/07/28 03:06:35;;;;;;;3.27;1.90;;;15.40;99.90;;;;;;4935179;29;20417;-75
2022/07/28 03:09:00;;;;;;;3.63;2.10;;;15.50;99.90;;;;;;4934818;29;20469;-74
2022/07/28 03:11:26;;;;;;;2.97;1.53;;;15.50;99.90;;;;;;4934099;29;20445;-75
2022/07/28 03:13:52;;;;;;;5.53;2.40;;;15.50;99.90;;;;;;4934607;29;20193;-75
2022/07/28 03:16:18;;;;;;;3.43;1.83;;;15.40;99.90;;;;;;4934710;29;20260;-76
2022/07/28 03:18:43;;;;;;;8.97;2.90;;;15.40;99.90;;;;;;4934590;29;20239;-75
2022/07/28 03:21:09;;;;;;;3.63;2.30;;;15.40;99.90;;;;;;4934059;29;20252;-76
2022/07/28 03:23:41;;;;;;;4.57;2.37;;;15.40;99.90;;;;;;4934470;29;20525;-76
2022/07/28 03:26:18;;;;;;;4.10;2.00;;;15.40;99.90;;;;;;4934615;29;20576;-75
2022/07/28 03:28:45;;;;;;;2.43;1.90;;;15.30;99.90;;;;;;4934152;29;20468;-75
2022/07/28 03:31:12;;;;;;;5.60;2.00;;;15.30;99.90;;;;;;4933079;29;20524;-75
2022/07/28 03:33:38;;;;;;;2.80;2.00;;;15.20;99.90;;;;;;4934460;29;20507;-76
2022/07/28 03:36:14;;;;;;;2.70;1.70;;;15.30;99.90;;;;;;4933719;29;20406;-76
2022/07/28 03:38:52;;;;;;;2.40;2.10;;;15.20;99.90;;;;;;4933884;29;20415;-73
2022/07/28 03:41:20;;;;;;;2.90;1.90;;;15.20;99.90;;;;;;4933084;29;20843;-76
2022/07/28 03:43:47;;;;;;;5.43;2.90;;;15.20;99.90;;;;;;4936590;29;20422;-74
2022/07/28 03:46:13;;;;;;;3.00;2.27;;;15.20;99.90;;;;;;4939718;29;20423;-75
2022/07/28 03:48:38;;;;;;;2.80;2.03;;;15.20;99.90;;;;;;4940302;29;20571;-75
2022/07/28 03:51:04;;;;;;;4.40;2.77;;;15.20;99.90;;;;;;4939578;29;20203;-75
2022/07/28 03:53:29;;;;;;;2.63;2.40;;;15.10;99.90;;;;;;4939595;29;20181;-72
2022/07/28 03:55:55;;;;;;;3.67;2.30;;;15.10;99.90;;;;;;4939734;29;20657;-72
2022/07/28 03:58:24;;;;;;;3.10;2.20;;;15.10;99.90;;;;;;4940512;29;20184;-72
2022/07/28 04:00:50;;;;;;;5.90;2.10;;;15.20;99.90;;;;;;4939624;29;20999;-72
2022/07/28 04:03:17;;;;;;;2.50;2.10;;;15.20;99.90;;;;;;4940269;29;20420;-71
2022/07/28 04:05:43;;;;;;;2.23;2.03;;;15.10;99.90;;;;;;4940289;29;20422;-71
2022/07/28 04:08:09;;;;;;;12.07;2.50;;;15.20;99.90;;;;;;4939949;29;20421;-71
2022/07/28 04:10:35;;;;;;;5.43;2.73;;;15.10;99.90;;;;;;4939640;29;20485;-71
2022/07/28 04:13:01;;;;;;;4.17;2.50;;;15.10;99.90;;;;;;4939978;29;20185;-71
2022/07/28 04:15:27;;;;;;;5.37;2.30;;;15.10;99.90;;;;;;4940774;29;20696;-72
2022/07/28 04:17:54;;;;;;;2.60;2.30;;;15.10;99.90;;;;;;4939927;29;20417;-70
2022/07/28 04:20:22;;;;;;;4.00;1.97;;;15.10;99.90;;;;;;4939742;29;20453;-69
2022/07/28 04:22:49;;;;;;;3.13;1.80;;;15.10;99.90;;;;;;4939719;29;20463;-70
2022/07/28 04:25:17;;;;;;;2.83;1.83;;;15.10;99.90;;;;;;4939721;29;20512;-71
2022/07/28 04:27:43;;;;;;;7.30;1.83;;;15.20;99.90;;;;;;4939804;29;20498;-71
2022/07/28 04:30:17;;;;;;;6.47;1.93;;;15.10;99.90;;;;;;4940235;29;20467;-71
2022/07/28 04:32:44;;;;;;;5.23;2.10;;;15.20;99.90;;;;;;4939415;29;20528;-72
2022/07/28 04:35:11;;;;;;;2.67;1.93;;;15.30;99.90;;;;;;4940047;29;20425;-70
2022/07/28 04:37:38;;;;;;;7.63;2.60;;;15.30;99.90;;;;;;4940066;29;20476;-71
2022/07/28 04:40:05;;;;;;;1.30;1.20;;;15.40;99.90;;;;;;4939014;29;20503;-68
2022/07/28 04:42:31;;;;;;;5.70;1.70;;;15.40;99.90;;;;;;4938364;29;20436;-68
2022/07/28 04:44:56;;;;;;;4.40;2.10;;;15.40;99.90;;;;;;4938374;29;20424;-68
2022/07/28 04:47:23;;;;;;;5.57;1.93;;;15.50;99.90;;;;;;4938907;29;20736;-68
2022/07/28 04:49:49;;;;;;;6.17;2.17;;;15.60;99.90;;;;;;4939069;29;20592;-68
2022/07/28 04:52:14;;;;;;;5.90;1.70;;;15.70;99.90;;;;;;4937340;29;20443;-68
2022/07/28 04:54:40;;;;;;;4.93;2.17;;;15.80;99.90;;;;;;4937609;29;20180;-66
2022/07/28 04:57:06;;;;;;;6.97;2.53;;;15.80;99.90;;;;;;4935340;29;20260;-70
2022/07/28 04:59:34;;;;;;;3.20;1.27;;;15.90;99.90;;;;;;4936033;29;20173;-71
2022/07/28 05:02:00;;;;;;;2.60;1.70;;;15.90;99.90;;;;;;4935571;29;20212;-70
2022/07/28 05:04:26;;;;;;;7.50;2.03;;;16.00;99.90;;;;;;4934946;29;20417;-73
2022/07/28 05:06:51;;;;;;;4.87;1.70;;;16.00;99.90;;;;;;4935748;29;20414;-73
2022/07/28 05:09:17;;;;;;;3.67;1.70;;;16.10;99.90;;;;;;4935499;29;20180;-73
2022/07/28 05:11:42;;;;;;;2.60;1.93;;;16.10;99.90;;;;;;4935205;29;20229;-73
2022/07/28 05:14:08;;;;;;;3.43;1.77;;;16.10;99.90;;;;;;4934787;29;20185;-73
2022/07/28 05:16:34;;;;;;;3.73;2.07;;;16.10;99.90;;;;;;4935783;29;20194;-73
2022/07/28 05:19:00;;;;;;;2.40;2.20;;;16.20;99.90;;;;;;4935054;29;20445;-72
2022/07/28 05:21:25;;;;;;;5.90;1.70;;;16.20;99.90;;;;;;4934213;29;20722;-71
2022/07/28 05:23:51;;;;;;;5.70;2.40;;;16.40;99.90;;;;;;4934212;29;20174;-73
2022/07/28 05:26:16;;;;;;;2.70;2.00;;;16.70;99.90;;;;;;4935556;29;20213;-74
2022/07/28 05:28:42;;;;;;;6.50;1.80;;;17.00;99.90;;;;;;4934200;29;20541;-72
2022/07/28 05:31:07;;;;;;;4.53;1.67;;;17.50;99.90;;;;;;4934240;29;20749;-73
2022/07/28 05:33:34;;;;;;;3.23;1.73;;;18.00;99.90;;;;;;4935431;29;20236;-74
2022/07/28 05:35:59;;;;;;;8.27;2.03;;;18.20;99.90;;;;;;4934888;29;20186;-70
2022/07/28 05:38:26;;;;;;;6.10;2.23;;;18.40;99.90;;;;;;4934153;29;20935;-73
2022/07/28 05:40:52;;;;;;;8.67;1.83;;;18.70;99.90;;;;;;4934326;29;20694;-73
2022/07/28 05:43:19;;;;;;;2.03;1.37;;;18.70;99.90;;;;;;4934788;29;20421;-74
2022/07/28 05:45:45;;;;;;;6.10;1.97;;;19.00;99.90;;;;;;4935192;29;20228;-73
2022/07/28 05:48:11;;;;;;;3.20;1.80;;;19.30;99.90;;;;;;4935061;29;20410;-73
2022/07/28 05:50:37;;;;;;;4.23;1.87;;;19.80;99.90;;;;;;4934348;29;20421;-73
2022/07/28 05:53:03;;;;;;;3.67;1.90;;;20.20;99.90;;;;;;4934516;29;20803;-73
2022/07/28 05:55:28;;;;;;;2.00;1.50;;;20.60;99.90;;;;;;4935325;29;20205;-74
2022/07/28 05:57:54;;;;;;;4.10;1.90;;;20.80;99.90;;;;;;4933924;29;20720;-73
2022/07/28 06:00:21;;;;;;;11.40;2.17;;;21.20;99.90;;;;;;4934545;29;20724;-70
2022/07/28 06:02:48;;;;;;;4.73;2.00;;;21.40;99.90;;;;;;4934144;29;20193;-73
2022/07/28 06:05:18;;;;;;;5.80;2.30;;;21.60;99.90;;;;;;4934617;29;20425;-73
2022/07/28 06:07:48;;;;;;;2.37;2.03;;;21.90;99.90;;;;;;4934321;29;20444;-72
2022/07/28 06:10:17;;;;;;;4.60;2.23;;;22.40;99.90;;;;;;4934430;29;20934;-73
2022/07/28 06:12:46;;;;;;;2.27;2.00;;;22.70;99.90;;;;;;4933567;29;20489;-72
2022/07/28 06:15:14;;;;;;;5.87;2.43;;;22.90;99.90;;;;;;4934442;29;20436;-73
2022/07/28 06:17:40;;;;;;;6.17;2.57;;;23.10;99.90;;;;;;4934296;29;20421;-72
2022/07/28 06:20:07;;;;;;;5.10;2.03;;;23.30;99.90;;;;;;4933719;29;20504;-73
2022/07/28 06:22:48;;;;;;;7.80;2.20;;;23.20;99.90;;;;;;4933811;29;20437;-73
2022/07/28 06:25:21;;;;;;;5.60;2.03;;;23.40;99.90;;;;;;4933728;29;20413;-73
2022/07/28 06:27:48;;;;;;;3.37;2.73;;;23.50;99.90;;;;;;4934349;29;20465;-73
2022/07/28 06:30:15;;;;;;;7.70;2.50;;;23.50;99.90;;;;;;4933526;29;20472;-74
2022/07/28 06:32:41;;;;;;;2.97;2.77;;;23.50;99.90;;;;;;4932670;29;20488;-73
2022/07/28 06:35:07;;;;;;;9.00;2.73;;;23.80;99.90;;;;;;4933732;29;20453;-74
2022/07/28 06:37:33;;;;;;;4.17;2.97;;;24.10;99.90;;;;;;4934430;29;20272;-73
2022/07/28 06:39:59;;;;;;;5.37;2.70;;;23.70;99.90;;;;;;4933509;29;20540;-72
2022/07/28 06:42:24;;;;;;;3.57;2.70;;;23.80;99.90;;;;;;4933269;29;20193;-73
2022/07/28 06:44:50;;;;;;;7.73;3.33;;;24.10;99.90;;;;;;4934263;29;20185;-73
2022/07/28 06:47:16;;;;;;;6.47;3.17;;;24.20;99.90;;;;;;4934001;29;20559;-73
2022/07/28 06:49:42;;;;;;;6.37;3.17;;;24.40;99.90;;;;;;4933696;29;20416;-72
2022/07/28 06:52:07;;;;;;;3.30;2.97;;;24.60;99.90;;;;;;4933009;29;20209;-73
2022/07/28 06:54:33;;;;;;;3.63;3.03;;;24.60;99.90;;;;;;4933702;29;20779;-73
2022/07/28 06:56:58;;;;;;;6.73;3.87;;;24.40;99.90;;;;;;4934107;29;20260;-73
2022/07/28 06:59:24;;;;;;;5.70;3.17;;;24.30;99.90;;;;;;4933892;29;20200;-73
2022/07/28 07:01:50;;;;;;;8.43;3.47;;;24.30;99.90;;;;;;4932591;29;20573;-74
2022/07/28 07:04:16;;;;;;;7.00;2.90;;;24.40;99.90;;;;;;4933442;29;20244;-73
2022/07/28 07:06:42;;;;;;;4.33;3.40;;;24.80;99.90;;;;;;4933615;29;20504;-73
2022/07/28 07:09:07;;;;;;;14.57;5.37;;;25.20;99.90;;;;;;4933552;29;20654;-73
2022/07/28 07:11:33;;;;;;;3.70;3.23;;;25.20;99.90;;;;;;4932940;29;20448;-73
2022/07/28 07:13:59;;;;;;;7.07;4.20;;;25.10;99.90;;;;;;4933304;29;20272;-70
2022/07/28 07:16:24;;;;;;;4.83;3.37;;;25.10;99.90;;;;;;4933521;29;20268;-73
2022/07/28 07:18:51;;;;;;;4.63;4.23;;;24.80;99.90;;;;;;4932904;29;20229;-73
2022/07/28 07:21:18;;;;;;;6.20;4.30;;;24.80;99.90;;;;;;4932882;29;20667;-73
2022/07/28 07:23:44;;;;;;;5.30;3.77;;;24.80;99.90;;;;;;4933402;29;20409;-74
2022/07/28 07:26:10;;;;;;;6.47;4.70;;;25.10;99.90;;;;;;4933394;29;20472;-74
2022/07/28 07:28:35;;;;;;;7.07;4.43;;;25.50;99.90;;;;;;4932955;29;20414;-74
2022/07/28 07:31:01;;;;;;;7.47;4.40;;;25.70;99.90;;;;;;4932257;29;20215;-74
2022/07/28 07:33:26;;;;;;;5.67;4.07;;;25.90;99.90;;;;;;4933109;29;20177;-73
2022/07/28 07:35:52;;;;;;;6.70;3.93;;;25.80;99.90;;;;;;4933341;29;20178;-72
2022/07/28 07:38:17;;;;;;;7.53;4.00;;;25.60;99.90;;;;;;4933281;29;20185;-73
2022/07/28 07:40:43;;;;;;;5.93;4.60;;;25.50;99.90;;;;;;4932402;29;20721;-73
2022/07/28 07:43:09;;;;;;;6.13;4.17;;;25.50;99.90;;;;;;4932240;29;20201;-74
2022/07/28 07:45:34;;;;;;;5.00;3.53;;;25.90;99.90;;;;;;4933360;29;20268;-73
2022/07/28 07:48:01;;;;;;;9.83;5.20;;;26.10;99.90;;;;;;4933419;29;20169;-72
2022/07/28 07:50:27;;;;;;;12.07;4.57;;;26.00;99.90;;;;;;4933159;29;20177;-73
2022/07/28 07:52:52;;;;;;;4.87;4.00;;;25.90;99.90;;;;;;4933719;29;20447;-73
2022/07/28 07:55:18;;;;;;;4.50;4.10;;;26.20;99.90;;;;;;4932939;29;20898;-73
2022/07/28 07:57:43;;;;;;;5.47;4.30;;;26.80;99.90;;;;;;4933121;29;20232;-73
2022/07/28 08:00:10;;;;;;;6.73;4.60;;;27.10;99.90;;;;;;4932909;29;20291;-73
2022/07/28 08:02:39;;;;;;;8.17;4.80;;;26.70;99.90;;;;;;4932148;29;20200;-73
2022/07/28 08:05:06;;;;;;;5.77;4.07;;;27.10;99.90;;;;;;4932513;29;20552;-74
2022/07/28 08:07:31;;;;;;;5.83;4.70;;;27.50;99.90;;;;;;4933016;29;20409;-73
2022/07/28 08:09:57;;;;;;;11.43;4.73;;;27.60;99.90;;;;;;4933102;29;20726;-72
2022/07/28 08:12:22;;;;;;;6.37;4.33;;;27.60;99.90;;;;;;4932071;29;20575;-74
2022/07/28 08:14:48;;;;;;;4.50;4.03;;;27.70;99.90;;;;;;4932934;29;20798;-73
2022/07/28 08:17:13;;;;;;;5.40;4.90;;;28.00;99.90;;;;;;4932328;29;20182;-73
2022/07/28 08:19:39;;;;;;;4.40;3.93;;;27.90;99.90;;;;;;4932787;29;20558;-70
2022/07/28 08:22:05;;;;;;;5.00;4.50;;;27.60;99.90;;;;;;4932129;29;20212;-73
2022/07/28 08:24:30;;;;;;;5.13;4.67;;;28.20;99.90;;;;;;4932813;29;20188;-73
2022/07/28 08:26:56;;;;;;;5.77;5.07;;;28.60;99.90;;;;;;4933004;29;20209;-73
2022/07/28 08:29:21;;;;;;;5.67;5.17;;;28.80;99.90;;;;;;4932097;29;20169;-73
2022/07/28 08:31:47;;;;;;;6.63;4.20;;;28.80;99.90;;;;;;4934699;29;20228;-74
2022/07/28 08:34:12;;;;;;;5.80;4.60;;;28.50;99.90;;;;;;4936297;29;20220;-74
2022/07/28 08:36:38;;;;;;;6.40;4.20;;;28.50;99.90;;;;;;4936469;29;20200;-75
2022/07/28 08:39:04;;;;;;;6.80;4.73;;;28.70;99.90;;;;;;4936351;29;20787;-73
2022/07/28 08:41:45;;;;;;;6.00;4.70;;;28.90;99.90;;;;;;4935066;29;20215;-74
2022/07/28 08:44:17;;;;;;;5.00;4.50;;;28.90;99.90;;;;;;4934489;29;20181;-74
2022/07/28 08:46:43;;;;;;;4.93;4.40;;;29.30;99.90;;;;;;4936345;29;20606;-74
2022/07/28 08:49:10;;;;;;;5.23;4.53;;;29.10;99.90;;;;;;4935802;29;20778;-73
2022/07/28 08:51:37;;;;;;;5.77;5.23;;;29.40;99.90;;;;;;4934434;29;20784;-73
2022/07/28 08:54:04;;;;;;;6.13;5.47;;;29.20;99.90;;;;;;4935691;29;20409;-73
2022/07/28 08:56:31;;;;;;;4.97;4.57;;;28.80;99.90;;;;;;4935976;29;20475;-73
2022/07/28 08:58:57;;;;;;;5.40;4.70;;;28.80;99.90;;;;;;4935959;29;20910;-73
2022/07/28 09:01:23;;;;;;;5.03;4.70;;;28.90;99.90;;;;;;4934848;29;20500;-74
2022/07/28 09:03:50;;;;;;;8.73;5.10;;;28.80;99.90;;;;;;4935427;29;20449;-73
2022/07/28 09:06:16;;;;;;;6.57;5.93;;;29.00;99.90;;;;;;4935789;29;20520;-74
2022/07/28 09:08:42;;;;;;;4.80;4.30;;;29.60;99.90;;;;;;4935675;29;20480;-73
2022/07/28 09:11:07;;;;;;;7.80;4.70;;;30.00;99.90;;;;;;4933744;29;20525;-74
2022/07/28 09:13:34;;;;;;;4.50;4.10;;;30.20;99.90;;;;;;4935382;29;20659;-74
2022/07/28 09:15:59;;;;;;;4.53;4.27;;;30.60;99.90;;;;;;4935446;29;20196;-70
2022/07/28 09:18:25;;;;;;;5.53;5.10;;;30.80;99.90;;;;;;4935593;29;20919;-74
2022/07/28 09:20:51;;;;;;;6.63;4.20;;;30.80;99.90;;;;;;4934851;29;20581;-74
2022/07/28 09:23:16;;;;;;;6.40;4.50;;;30.20;99.90;;;;;;4934669;29;20449;-74
2022/07/28 09:25:42;;;;;;;7.70;5.23;;;30.20;99.90;;;;;;4935665;29;20173;-74
2022/07/28 09:28:16;;;;;;;7.70;5.23;;;30.20;99.90;;;;;;4935138;29;20201;-72
2022/07/28 09:30:44;;;;;;;9.40;5.50;;;30.60;99.90;;;;;;4934625;29;20301;-72
2022/07/28 09:33:13;;;;;;;6.50;4.17;;;30.90;99.90;;;;;;4934864;29;20758;-73
2022/07/28 09:35:58;;;;;;;6.00;5.10;;;31.20;99.90;;;;;;4935121;29;20473;-70
2022/07/28 09:38:26;;;;;;;7.27;5.20;;;31.30;99.90;;;;;;4935185;29;20409;-73
2022/07/28 09:41:05;;;;;;;5.20;4.80;;;30.80;99.90;;;;;;4934158;29;20457;-73
2022/07/28 09:43:35;;;;;;;5.50;4.40;;;30.50;99.90;;;;;;4935118;29;20424;-74
2022/07/28 09:46:14;;;;;;;5.07;4.57;;;30.60;99.90;;;;;;4934406;29;20472;-74
2022/07/28 09:48:49;;;;;;;13.03;5.10;;;31.10;99.90;;;;;;4935066;29;20432;-71
2022/07/28 09:51:26;;;;;;;8.63;4.70;;;31.60;99.90;;;;;;4934310;29;20429;-74
2022/07/28 09:54:04;;;;;;;4.80;4.00;;;32.10;99.90;;;;;;4935057;29;20409;-74
2022/07/28 09:56:30;;;;;;;4.77;4.33;;;32.10;99.90;;;;;;4935060;29;20424;-73
2022/07/28 09:58:58;;;;;;;5.00;3.57;;;32.00;99.90;;;;;;4934553;29;20420;-73
2022/07/28 10:01:24;;;;;;;4.53;3.90;;;31.30;99.90;;;;;;4933966;29;20465;-74
2022/07/28 10:03:54;;;;;;;5.70;4.50;;;31.00;99.90;;;;;;4933567;29;20938;-75
2022/07/28 10:06:31;;;;;;;4.77;4.37;;;31.30;99.90;;;;;;4934370;29;20418;-73
2022/07/28 10:08:59;;;;;;;4.60;4.37;;;31.10;99.90;;;;;;4934811;29;20508;-74
2022/07/28 10:11:26;;;;;;;5.10;4.70;;;31.50;99.90;;;;;;4933425;29;20969;-72
2022/07/28 10:13:54;;;;;;;8.60;4.63;;;31.80;99.90;;;;;;4934405;29;20926;-74
2022/07/28 10:16:21;;;;;;;7.60;4.70;;;32.50;99.90;;;;;;4934607;29;20963;-72
2022/07/28 10:18:47;;;;;;;4.43;4.03;;;32.40;99.90;;;;;;4934583;29;20423;-75
2022/07/28 10:21:16;;;;;;;6.43;4.60;;;32.10;99.90;;;;;;4933631;29;20461;-74
2022/07/28 10:23:47;;;;;;;5.27;4.80;;;31.50;99.90;;;;;;4933869;29;20424;-73
2022/07/28 10:26:14;;;;;;;5.30;4.37;;;31.30;99.90;;;;;;4932915;29;20786;-72
2022/07/28 10:28:46;;;;;;;5.17;4.53;;;31.70;99.90;;;;;;4933861;29;20429;-72
2022/07/28 10:31:14;;;;;;;4.77;4.37;;;31.90;99.90;;;;;;4933368;29;20958;-74
2022/07/28 10:33:47;;;;;;;6.10;5.27;;;31.80;99.90;;;;;;4933949;29;20449;-73
2022/07/28 10:36:15;;;;;;;4.93;4.53;;;32.30;99.90;;;;;;4933601;29;20421;-74
2022/07/28 10:38:41;;;;;;;11.20;4.67;;;32.00;99.90;;;;;;4934048;29;21010;-72
2022/07/28 10:41:08;;;;;;;7.83;4.10;;;32.90;99.90;;;;;;4932563;29;20544;-74
2022/07/28 10:43:34;;;;;;;6.43;3.73;;;33.70;99.90;;;;;;4933977;29;20515;-74
2022/07/28 10:46:02;;;;;;;5.20;4.50;;;33.90;98.80;;;;;;4933945;29;20473;-71
2022/07/28 10:48:28;;;;;;;4.10;3.60;;;33.80;97.70;;;;;;4934012;29;20421;-75
2022/07/28 10:50:54;;;;;;;7.83;4.03;;;33.50;97.90;;;;;;4932747;29;20546;-74
2022/07/28 10:53:43;;;;;;;4.33;3.63;;;32.70;98.00;;;;;;4933021;29;20177;-71
2022/07/28 10:56:16;;;;;;;5.87;4.07;;;31.70;99.10;;;;;;4933810;29;20173;-74
2022/07/28 10:58:57;;;;;;;4.60;4.20;;;31.20;99.40;;;;;;4933817;29;20413;-74
2022/07/28 11:01:33;;;;;;;6.03;4.20;;;31.00;99.90;;;;;;4932595;29;20468;-73
2022/07/28 11:03:59;;;;;;;4.63;3.80;;;30.90;99.90;;;;;;4933102;29;20435;-71
2022/07/28 11:06:39;;;;;;;5.47;4.97;;;31.40;99.70;;;;;;4933685;29;20505;-73
2022/07/28 11:09:16;;;;;;;4.67;4.27;;;31.50;99.20;;;;;;4933498;29;20722;-74
2022/07/28 11:11:48;;;;;;;5.67;4.70;;;31.80;99.90;;;;;;4932219;29;20488;-74
2022/07/28 11:14:23;;;;;;;4.20;3.80;;;31.60;99.20;;;;;;4933263;29;20457;-74
2022/07/28 11:16:50;;;;;;;4.93;4.50;;;31.40;99.60;;;;;;4933570;29;20412;-74
2022/07/28 11:19:17;;;;;;;7.33;6.60;;;31.60;99.20;;;;;;4933318;29;20457;-74
2022/07/28 11:22:20;;;;;;;4.60;4.20;;;31.80;99.10;;;;;;4932062;29;20456;-74
2022/07/28 11:25:01;;;;;;;4.47;4.17;;;31.50;98.70;;;;;;4933366;29;20411;-73
2022/07/28 11:27:41;;;;;;;4.57;4.17;;;31.10;98.50;;;;;;4933370;29;20475;-73
2022/07/28 11:30:11;;;;;;;5.30;4.30;;;30.30;99.10;;;;;;4933245;29;20413;-75
2022/07/28 11:32:54;;;;;;;5.20;4.60;;;29.70;99.70;;;;;;4932480;29;20445;-73
2022/07/28 11:35:21;;;;;;;4.90;4.50;;;29.30;99.80;;;;;;4933093;29;20417;-72
2022/07/28 11:38:09;;;;;;;4.53;4.10;;;29.10;99.80;;;;;;4933407;29;20420;-73
2022/07/28 11:40:53;;;;;;;8.63;4.63;;;29.60;99.80;;;;;;4932060;29;20544;-71
2022/07/28 11:43:21;;;;;;;4.70;4.30;;;30.10;99.90;;;;;;4932997;29;20997;-73
2022/07/28 11:45:51;;;;;;;5.17;4.77;;;30.60;99.30;;;;;;4933107;29;20447;-73
2022/07/28 11:48:22;;;;;;;4.50;3.87;;;30.50;99.30;;;;;;4933082;29;20504;-73
2022/07/28 11:51:03;;;;;;;4.50;4.20;;;30.50;99.30;;;;;;4932113;29;20526;-74
2022/07/28 11:53:37;;;;;;;6.07;4.30;;;30.50;99.60;;;;;;4932402;29;20413;-74
2022/07/28 11:56:08;;;;;;;8.30;4.20;;;30.60;99.30;;;;;;4932926;29;20412;-73
2022/07/28 11:58:34;;;;;;;5.03;4.67;;;30.00;99.00;;;;;;4933254;29;20413;-73
2022/07/28 12:01:16;;;;;;;4.97;4.57;;;29.80;99.90;;;;;;4932064;29;20548;-70
2022/07/28 12:03:44;;;;;;;6.13;5.03;;;29.70;99.90;;;;;;4932332;29;20413;-74
2022/07/28 12:06:10;;;;;;;4.10;3.80;;;29.70;99.90;;;;;;4936401;29;20413;-74
2022/07/28 12:08:52;;;;;;;6.00;4.53;;;29.50;99.90;;;;;;4936946;29;20941;-73
2022/07/28 12:11:18;;;;;;;12.63;4.90;;;29.30;99.90;;;;;;4935301;29;20451;-74
2022/07/28 12:13:44;;;;;;;9.80;4.83;;;29.10;99.90;;;;;;4936107;29;20424;-74
2022/07/28 12:16:10;;;;;;;4.40;4.10;;;29.30;99.90;;;;;;4935899;29;20433;-74
2022/07/28 12:18:36;;;;;;;5.80;4.03;;;29.80;99.70;;;;;;4936822;29;20937;-74
2022/07/28 12:21:01;;;;;;;10.60;5.20;;;29.90;99.20;;;;;;4935579;29;20208;-72
2022/07/28 12:23:29;;;;;;;5.73;5.10;;;29.20;99.60;;;;;;4935973;29;20244;-73
2022/07/28 12:25:54;;;;;;;5.90;5.40;;;28.60;99.90;;;;;;4936823;29;20553;-73
2022/07/28 12:28:21;;;;;;;5.80;3.73;;;28.60;99.90;;;;;;4936331;29;20421;-72
2022/07/28 12:30:50;;;;;;;4.40;3.60;;;28.80;99.90;;;;;;4935788;29;20742;-74
2022/07/28 12:33:17;;;;;;;4.13;3.83;;;29.10;99.90;;;;;;4936081;29;20428;-73
2022/07/28 12:35:43;;;;;;;4.60;4.17;;;29.10;99.90;;;;;;4936123;29;20417;-72
2022/07/28 12:38:08;;;;;;;4.50;4.10;;;29.10;99.90;;;;;;4936113;29;20421;-74
2022/07/28 12:40:35;;;;;;;3.50;3.30;;;29.00;99.20;;;;;;4935608;29;20464;-72
2022/07/28 12:43:01;;;;;;;4.03;3.80;;;29.00;99.80;;;;;;4935762;29;20184;-73
2022/07/28 12:45:27;;;;;;;4.80;4.07;;;29.20;99.80;;;;;;4936116;29;20413;-73
2022/07/28 12:47:53;;;;;;;4.80;4.10;;;29.30;99.20;;;;;;4936372;29;20166;-73
2022/07/28 12:50:19;;;;;;;3.97;3.47;;;29.20;98.30;;;;;;4937274;29;20967;-74
2022/07/28 12:53:07;;;;;;;5.90;3.97;;;29.10;98.00;;;;;;4937257;29;20574;-73
2022/07/28 12:55:33;;;;;;;4.60;4.20;;;29.10;98.60;;;;;;4936741;29;21065;-73
2022/07/28 12:57:59;;;;;;;5.63;3.87;;;28.90;98.90;;;;;;4936127;29;20417;-73
2022/07/28 13:00:28;;;;;;;4.00;3.70;;;28.60;98.30;;;;;;4935108;29;20358;-72
2022/07/28 13:02:56;;;;;;;4.30;3.90;;;28.60;98.60;;;;;;4934813;29;20464;-73
2022/07/28 13:08:39;;;;;;;4.67;4.00;;;28.60;99.10;;;;;;4924174;29;21018;-74
2022/07/28 13:11:05;;;;;;;3.83;3.53;;;29.00;99.40;;;;;;4934490;29;20531;-72
2022/07/28 13:13:50;;;;;;;8.97;3.20;;;29.60;98.40;;;;;;4936268;29;20512;-73
2022/07/28 13:16:21;;;;;;;8.90;3.30;;;30.20;97.40;;;;;;4936130;29;20249;-73
2022/07/28 13:18:53;;;;;;;3.93;3.53;;;30.30;96.80;;;;;;4936196;29;20413;-74
2022/07/28 13:21:44;;;;;;;5.13;3.50;;;30.20;96.00;;;;;;4935041;29;20500;-74
2022/07/28 13:24:15;;;;;;;5.80;3.83;;;30.20;97.00;;;;;;4936493;29;20417;-73
2022/07/28 13:26:44;;;;;;;3.70;3.50;;;30.20;96.80;;;;;;4935770;29;20408;-72
2022/07/28 13:29:10;;;;;;;4.20;3.70;;;30.20;97.20;;;;;;4935394;29;20500;-74
2022/07/28 13:31:36;;;;;;;4.30;3.80;;;30.20;96.80;;;;;;4934929;29;20512;-74
2022/07/28 13:34:07;;;;;;;7.73;3.80;;;30.10;97.10;;;;;;4935275;29;20232;-73
2022/07/28 13:36:33;;;;;;;4.00;3.70;;;30.10;97.10;;;;;;4935242;29;20413;-74
2022/07/28 13:38:59;;;;;;;4.37;3.97;;;30.00;97.00;;;;;;4935011;29;20424;-72
2022/07/28 13:41:25;;;;;;;3.70;3.40;;;29.70;96.70;;;;;;4934498;29;20469;-74
2022/07/28 13:43:51;;;;;;;6.67;4.00;;;29.60;97.10;;;;;;4935063;29;20177;-73
2022/07/28 13:46:17;;;;;;;3.93;3.70;;;29.40;97.20;;;;;;4934974;29;20173;-73
2022/07/28 13:48:43;;;;;;;5.03;4.10;;;29.20;97.00;;;;;;4935017;29;20517;-74
2022/07/28 13:51:10;;;;;;;4.20;3.50;;;29.30;97.60;;;;;;4934274;29;20438;-74
2022/07/28 13:53:36;;;;;;;4.07;3.70;;;29.30;96.70;;;;;;4934909;29;20421;-73
2022/07/28 13:56:03;;;;;;;10.07;4.20;;;29.40;96.90;;;;;;4934625;29;20421;-72
2022/07/28 13:58:29;;;;;;;4.00;3.70;;;29.30;96.70;;;;;;4934600;29;20417;-73
2022/07/28 14:00:54;;;;;;;4.57;4.13;;;29.20;96.70;;;;;;4933837;29;20978;-72
2022/07/28 14:03:20;;;;;;;3.73;3.43;;;29.10;96.50;;;;;;4934339;29;20177;-71
2022/07/28 14:05:45;;;;;;;5.30;4.80;;;29.00;97.10;;;;;;4934252;29;20177;-73
2022/07/28 14:08:17;;;;;;;4.17;3.83;;;29.10;96.80;;;;;;4934559;29;20177;-73
2022/07/28 14:10:43;;;;;;;4.27;3.87;;;29.30;97.10;;;;;;4933737;29;20189;-73
2022/07/28 14:13:08;;;;;;;7.63;3.90;;;29.40;96.90;;;;;;4934442;29;20421;-72
2022/07/28 14:15:34;;;;;;;3.63;3.40;;;29.30;96.20;;;;;;4934547;29;20420;-74
2022/07/28 14:17:59;;;;;;;3.90;3.60;;;29.40;95.90;;;;;;4935905;29;20209;-71
2022/07/28 14:20:25;;;;;;;3.63;3.33;;;29.40;96.00;;;;;;4934847;29;20201;-72
2022/07/28 14:22:51;;;;;;;3.93;3.63;;;29.50;95.50;;;;;;4934179;29;20677;-73
2022/07/28 14:25:16;;;;;;;3.67;3.40;;;29.60;95.30;;;;;;4934051;29;20391;-74